CheckWX is a tool to help pilots better visualize weather data.  It is not intended as a substitute for an official pre-flight weather briefing.

05:42:10 UTC

KBAD TAF
Barksdale AFB Airport
Bossier City, Louisiana, USA
TAF KBAD 010200Z 0102/0208 05005KT 9999 BKN250 QNH3008INS TX30/0121Z TN16/0111Z

Jun-1@
02:00 UTC

Jun-1 @ 02:00 UTC

Jun-2@
08:00 UTC

Jun-2 @ 08:00 UTC

TAF KBAD 010200Z 0102/0208 05005KT 9999 BKN250 QNH3008INS TX30/0121Z TN16/0111Z
Wind
  • 050° at 5 KTS
Cloud Levels
  • Broken at 25,000' AGL